Stockholm, SD (57264)

5:52 AM CDT on September 05, 2015 (GMT -0500)
Turkey Ridge | | Change Station
CLOSE
Current Station
Personal Weather Station
Location: Watertown, SD
Elevation: 1795 ft
Nearby Weather Stations

Elev 1795 ft 44.91 °N, 97.08 °W | Updated 2 minutes ago

Clear
Clear
69.5 °F
Feels Like 69.5 °F
N
4.0
Wind Variable Wind from South
Gusts 9.0 mph

Today
High -- | Low -- °F
--% Chance of Precip.
Yesterday
High -- | Low -- °F
Precip. -- in
6:53 AM 7:57 PM
Waning Gibbous, 50% visible
Pressure 29.81 in
Visibility 10.0 miles
Clouds Clear
Dew Point 67 °F
Humidity 92%
Rainfall 0.00 in
Snow Depth Not available.
UV 0 out of 12
Pollen 11.00 out of 12
Air Quality Not available.
Flu Activity Not available.
METAR KATY 050953Z AUTO 16008KT 10SM CLR 22/19 A2984 RMK AO2 SLP092 T02170194
Pressure 29.81 in
Visibility 10.0 miles
Clouds Clear
Dew Point 67 °F
Humidity 92%
Rainfall 0.00 in
Snow Depth Not available.
UV 0 out of 12
Pollen 11.00 out of 12
Air Quality Not available.
Flu Activity Not available.
METAR KATY 050953Z AUTO 16008KT 10SM CLR 22/19 A2984 RMK AO2 SLP092 T02170194

10-Day Weather Forecast

×

Almanac

Astronomy

Sep. 05, 2015 Rise Set
Actual Time
Civil Twilight
Nautical Twilight
Astronomical Twilight
Moon
Length of Visible Light
Length of Day
Tomorrow will be .
, % of the Moon is Illuminated

Today's Extremes

State Highs State Lows

Community

WunderPhotos

Upload Photos

1,852,439 photos uploaded!

WunderBlogs® & News

Nearby

Air Quality

  Air Quality AQ Index Pollutant
Not available.

Snow Depth

Station Depth Elevation

Earthquake Activity

City Distance Mag. Time & Date
Minimum magnitude displayed is 2.5.

Coastal Water Temperatures

Place Temperature

Stations

Nearby Weather Stations

Station Location Temp. Windchill Dew Point Humidity Wind Precip. Elev Updated Type